Latest Coastal Weather Observations for Kowanyama

IDQ60701

Issued at 3:21 am EST Thursday 23 February 2017 (issued every 10 minutes, with the page automatically refreshed every 10 minutes)

About coastal observations | Map of coastal stations | Coastal observations for QLD | Marine services | Other Formats
Station Details ID: 029038 Name: KOWANYAMA AIRPORT Lat: -15.48 Lon: 141.75 Height: 9.6 m
Data from the previous 72 hours. | See also: Recent months at Kowanyama
Date/Time
EST
Temp
°C
Wind Pressure Rain since
9am
mm
Weather Cloud Vis
km
Sea
Height
m
Swell
Dir  Spd
kts
Gust
kts
hPa Trend Height
m
Period
s
Dir
23/03:00am 24.9 ENE 6 10 1010.7 - 0.0 - Mostly clear 10 - - - -
23/02:30am 25.1 NE 7 11 1010.9 - 0.0 - Partly cloudy 10 - - - -
23/02:00am 25.3 NE 6 9 1011.3 - 0.0 - Partly cloudy 10 - - - -
23/01:30am 25.5 ENE 5 8 1011.2 - 0.0 - - 10 - - - -
23/01:00am 25.6 NE 5 6 1011.4 - 0.0 - Partly cloudy 10 - - - -
23/12:30am 25.6 ENE 4 6 1011.2 - 0.0 - Partly cloudy 10 - - - -
23/12:00am 25.7 ENE 4 6 1011.6 - 0.0 - Cloudy 10 - - - -
 
Date/Time
EST
Temp
°C
Wind Pressure Rain since
9am
mm
Weather Cloud Vis
km
Sea
Height
m
Swell
Dir  Spd
kts
Gust
kts
hPa Trend Height
m
Period
s
Dir
22/11:30pm 25.9 E 5 6 1012.2 - 0.0 - Partly cloudy 10 - - - -
22/11:00pm 25.8 ENE 5 8 1012.3 - 0.0 - Partly cloudy 10 - - - -
22/10:30pm 26.1 E 6 11 1012.4 - 0.0 - Partly cloudy 10 - - - -
22/10:00pm 27.1 E 4 6 1011.7 - 0.0 - - 10 - - - -
22/09:30pm 27.2 NNE 3 5 1011.1 - 0.0 - - 10 - - - -
22/09:00pm 27.3 N 3 4 1010.3 - 0.0 - Cloudy 10 - - - -
22/08:30pm 27.3 NE 4 5 1010.4 - 0.0 - - 10 - - - -
22/08:00pm 27.5 NNE 3 4 1010.2 - 0.0 - - 10 - - - -
22/07:30pm 27.8 NNW 4 6 1009.9 - 0.0 - - 10 - - - -
22/07:00pm 28.2 NW 5 9 1009.7 - 0.0 - Partly cloudy 10 - - - -
22/06:30pm 28.8 NW 7 13 1009.1 - 0.0 - - 10 - - - -
22/06:00pm 28.8 NW 7 10 1008.7 - 0.0 - - 10 - - - -
22/05:30pm 29.2 NW 7 11 1008.4 - 0.0 - Partly cloudy 10 - - - -
22/05:00pm 30.0 NNW 7 13 1007.9 - 0.0 - - 10 - - - -
22/04:30pm 31.3 NNW 8 12 1007.4 - 0.0 - - 10 - - - -
22/04:00pm 31.8 N 10 16 1007.5 - 0.0 - Partly cloudy 10 - - - -
22/03:30pm 32.8 NW 10 15 1007.5 - 0.0 - Partly cloudy 10 - - - -
22/03:00pm 33.2 NW 8 12 1007.8 - 0.0 - Mostly clear 10 - - - -
22/02:30pm 32.8 N 7 10 1008.0 - 0.0 - Partly cloudy 10 - - - -
22/02:00pm 33.2 N 7 12 1008.6 - 0.0 - Partly cloudy 10 - - - -
22/01:30pm 32.8 N 7 11 1009.1 - 0.0 - Partly cloudy 10 - - - -
22/01:00pm 32.5 NNE 8 12 1009.6 - 0.0 - Partly cloudy 10 - - - -
22/12:30pm 31.8 N 9 14 1009.9 - 0.0 - Partly cloudy 10 - - - -
22/12:00pm 31.6 NNE 8 12 1010.3 - 0.0 - Cloudy 10 - - - -
22/11:30am 31.8 NNE 8 13 1010.5 - 0.0 - Partly cloudy 10 - - - -
22/11:00am 31.2 NNE 7 11 1010.6 - 0.0 - Partly cloudy 10 - - - -
22/10:30am 30.7 NE 9 14 1011.0 - 0.0 - Partly cloudy 10 - - - -
22/10:00am 30.1 NNE 8 12 1011.4 - 0.0 - Partly cloudy 10 - - - -
22/09:30am 29.5 NE 8 13 1011.6 - 0.0 - Partly cloudy 10 - - - -
22/09:00am 29.0 NE 7 11 1011.4 - 0.0 - - 10 - - - -
22/08:30am 28.0 NNE 6 10 1011.2 - 0.0 - - 10 - - - -
22/08:00am 27.2 NE 6 9 1010.8 - 0.0 - - 10 - - - -
22/07:30am 26.1 NE 6 9 1010.6 - 0.0 - Partly cloudy 10 - - - -
22/07:00am 25.0 NE 4 6 1010.2 - 0.0 - - 10 - - - -
22/06:30am 24.7 NE 4 5 1010.2 - 0.0 - Partly cloudy 10 - - - -
22/06:00am 24.8 NNE 4 6 1010.2 - 0.0 - Cloudy 10 - - - -
22/05:30am 24.8 NE 4 6 1010.1 - 0.0 - Partly cloudy 10 - - - -
22/05:00am 24.9 NNE 4 5 1009.8 - 0.0 - Partly cloudy 10 - - - -
22/04:30am 25.1 NE 5 6 1009.3 - 0.0 - Partly cloudy 10 - - - -
22/04:00am 25.3 NNE 4 7 1009.3 - 0.0 - Partly cloudy 10 - - - -
22/03:30am 25.4 NE 5 7 1009.1 - 0.0 - Partly cloudy 10 - - - -
22/03:00am 25.5 NE 4 7 1009.1 - 0.0 - Cloudy 10 - - - -
22/02:30am 25.5 NE 5 7 1009.2 - 0.0 - Partly cloudy 10 - - - -
22/02:00am 25.9 NE 6 9 1009.5 - 0.0 - Partly cloudy 10 - - - -
22/01:30am 26.0 NE 6 9 1010.0 - 0.0 - Partly cloudy 10 - - - -
22/01:00am 26.0 ENE 6 9 1010.4 - 0.0 - Partly cloudy 10 - - - -
22/12:30am 26.0 NE 5 8 1010.7 - 0.0 - Partly cloudy 10 - - - -
22/12:00am 26.2 ENE 5 7 1011.0 - 0.0 - Cloudy 10 - - - -
 
Date/Time
EST
Temp
°C
Wind Pressure Rain since
9am
mm
Weather Cloud Vis
km
Sea
Height
m
Swell
Dir  Spd
kts
Gust
kts
hPa Trend Height
m
Period
s
Dir
21/11:30pm 26.3 NE 5 6 1011.2 - 0.0 - Partly cloudy 10 - - - -
21/11:00pm 26.2 NE 5 9 1011.0 - 0.0 - - 10 - - - -
21/10:30pm 26.4 NE 3 4 1010.9 - 0.0 - - 10 - - - -
21/10:00pm 26.5 NE 3 5 1010.9 - 0.0 - - 10 - - - -
21/09:30pm 26.6 NE 3 4 1010.7 - 0.0 - - 10 - - - -
21/09:00pm 27.1 CALM 0 2 1010.4 - 0.0 - Mostly clear 10 - - - -
21/08:30pm 27.5 CALM 0 0 1010.3 - 0.0 - Partly cloudy 10 - - - -
21/08:00pm 27.8 CALM 0 0 1010.0 - 0.0 - Partly cloudy 10 - - - -
21/07:30pm 28.1 CALM 0 0 1009.6 - 0.0 - Partly cloudy 10 - - - -
21/07:00pm 28.3 N 3 5 1009.4 - 0.0 - Partly cloudy 10 - - - -
21/06:30pm 29.2 N 5 8 1008.9 - 0.0 - - 10 - - - -
21/06:00pm 29.4 NNE 6 10 1008.5 - 0.0 - - 10 - - - -
21/05:30pm 29.9 NNE 7 10 1008.2 - 0.0 - Partly cloudy 10 - - - -
21/05:00pm 30.2 N 6 11 1008.0 - 0.0 - Partly cloudy 10 - - - -
21/04:30pm 30.6 N 9 14 1007.6 - 0.0 - Partly cloudy 10 - - - -
21/04:00pm 31.3 N 7 12 1007.5 - 0.0 - Partly cloudy 10 - - - -
21/03:30pm 31.2 N 10 15 1007.7 - 0.0 - Partly cloudy 10 - - - -
21/03:00pm 31.2 NNE 10 16 1007.7 - 0.0 - Cloudy 10 - - - -
21/02:30pm 30.9 N 11 16 1008.0 - 0.0 - Partly cloudy 10 - - - -
21/02:00pm 30.8 NNE 9 16 1008.3 - 0.0 - Partly cloudy 10 - - - -
21/01:30pm 30.9 NNE 8 15 1008.9 - 0.0 - Partly cloudy 10 - - - -
21/01:00pm 29.9 N 9 14 1009.7 - 0.0 - Partly cloudy 10 - - - -
21/12:30pm 30.0 N 8 15 1010.3 - 0.0 - Partly cloudy 10 - - - -
21/12:00pm 29.4 NNE 6 10 1010.6 - 0.0 Rain Cloudy 10 - - - -
21/11:30am 29.0 NNE 9 15 1010.8 - 0.0 - Partly cloudy 10 - - - -
21/11:00am 28.4 NNE 9 13 1010.9 - 0.0 - Partly cloudy 10 - - - -
21/10:30am 28.2 NNE 9 15 1010.8 - 0.0 - Partly cloudy 10 - - - -
21/10:00am 28.0 NNE 9 16 1010.7 - 0.0 - Partly cloudy 10 - - - -
21/09:30am 28.0 NE 9 15 1010.4 - 0.0 - - 10 - - - -
21/09:02am 26.7 NE 7 12 1010.2 - 0.0 - Partly cloudy 10 - - - -
21/09:00am 26.5 NE 7 12 1010.2 - 13.2 - Partly cloudy 10 - - - -
21/08:30am 25.9 NNE 8 13 1010.1 - 13.2 - Partly cloudy 10 - - - -
21/08:26am 25.9 NNE 7 13 1010.1 - 13.2 - Partly cloudy 10 - - - -
21/08:00am 26.0 NNE 4 7 1009.9 - 13.2 - Partly cloudy 10 - - - -
21/07:30am 25.0 ENE 4 6 1009.6 - 13.2 - Cloudy 10 - - - -
21/07:00am 24.8 E 4 6 1009.1 - 13.0 - Partly cloudy 10 - - - -
21/06:43am 24.7 ENE 4 6 1008.8 - 13.0 - Partly cloudy 10 - - - -
21/06:30am 24.7 E 5 8 1008.7 - 12.8 - Partly cloudy 4 - - - -
21/06:04am 24.9 NE 4 6 1008.6 - 9.8 - Partly cloudy 5 - - - -
21/06:00am 24.9 NE 4 6 1008.5 - 9.6 Showers Cloudy 10 - - - -
21/05:30am 24.9 ENE 3 5 1008.1 - 9.6 - Partly cloudy 10 - - - -
21/05:00am 24.8 ENE 5 7 1007.7 - 9.6 - Partly cloudy 10 - - - -
21/04:59am 24.8 ENE 5 7 1007.7 - 9.6 - Partly cloudy 10 - - - -
21/04:38am 24.8 NE 4 6 1007.9 - 8.2 - Partly cloudy 5 - - - -
21/04:30am 24.8 ENE 4 6 1007.9 - 6.8 - Partly cloudy 10 - - - -
21/04:00am 24.7 NE 4 6 1007.8 - 5.8 - Partly cloudy 10 - - - -
21/03:30am 24.8 ENE 5 7 1007.6 - 5.4 - Partly cloudy 10 - - - -
21/03:00am 24.7 ENE 5 8 1007.8 - 4.4 Rain Cloudy 10 - - - -
21/02:33am 24.8 NE 6 9 1008.1 - 4.2 - Partly cloudy 10 - - - -
21/02:30am 24.8 NE 7 15 1008.1 - 4.2 - Partly cloudy 10 - - - -
21/02:17am 24.9 NE 6 9 1008.2 - 3.4 - Partly cloudy 5 - - - -
21/02:00am 25.3 NE 6 10 1008.3 - 2.4 - Partly cloudy 10 - - - -
21/01:30am 25.6 ENE 6 8 1008.2 - 2.2 - Partly cloudy 10 - - - -
21/01:00am 25.5 ENE 5 8 1008.6 - 2.2 - Partly cloudy 10 - - - -
21/12:30am 25.5 NE 6 11 1008.7 - 2.2 - - 10 - - - -
21/12:00am 25.4 E 5 7 1008.9 - 2.2 - Partly cloudy 10 - - - -
 
Date/Time
EST
Temp
°C
Wind Pressure Rain since
9am
mm
Weather Cloud Vis
km
Sea
Height
m
Swell
Dir  Spd
kts
Gust
kts
hPa Trend Height
m
Period
s
Dir
20/11:30pm 25.6 ENE 5 7 1009.0 - 2.2 - - 10 - - - -
20/11:00pm 25.7 ENE 6 9 1008.6 - 2.2 - - 10 - - - -
20/10:30pm 25.9 NE 5 7 1009.0 - 2.2 - - 10 - - - -
20/10:00pm 26.0 ENE 6 8 1008.9 - 2.2 - - 10 - - - -
20/09:30pm 25.9 ENE 4 6 1008.8 - 2.2 - - 10 - - - -
20/09:00pm 26.0 NNE 5 7 1008.4 - 2.2 - Cloudy 10 - - - -
20/08:30pm 26.0 NNE 6 9 1008.2 - 2.2 - - 10 - - - -
20/08:00pm 26.1 NNE 6 9 1008.2 - 2.2 - - 10 - - - -
20/07:30pm 26.1 NE 5 7 1007.4 - 2.2 - Partly cloudy 10 - - - -
20/07:00pm 26.1 NE 7 11 1007.3 - 2.2 - Partly cloudy 10 - - - -
20/06:30pm 26.3 NNE 7 9 1007.1 - 2.2 - Partly cloudy 10 - - - -
20/06:00pm 26.6 NNE 7 11 1006.9 - 2.2 - Mostly cloudy 10 - - - -
20/05:30pm 26.8 NNE 5 8 1006.3 - 2.2 - - 10 - - - -
20/05:00pm 26.6 NNE 5 7 1006.1 - 2.2 - Partly cloudy 10 - - - -
20/04:30pm 26.3 N 5 8 1006.3 - 2.2 - Partly cloudy 10 - - - -
20/04:00pm 25.7 N 7 12 1006.1 - 2.0 - Partly cloudy 10 - - - -
20/03:30pm 26.7 N 7 11 1006.4 - 1.2 - Partly cloudy 9 - - - -
20/03:00pm 27.3 NW 13 21 1005.9 - 0.0 Rain Cloudy 10 - - - -
20/02:30pm 31.4 N 6 11 1006.0 - 0.0 - Partly cloudy 10 - - - -
20/02:00pm 31.7 N 8 14 1006.0 - 0.0 - Partly cloudy 10 - - - -
20/01:30pm 32.3 N 7 12 1006.3 - 0.0 - Partly cloudy 10 - - - -
20/01:00pm 31.7 NNE 6 11 1007.1 - 0.0 - Partly cloudy 10 - - - -
20/12:30pm 32.0 NNE 8 13 1007.5 - 0.0 - Partly cloudy 10 - - - -
20/12:00pm 31.2 NE 8 12 1007.9 - 0.0 - Mostly clear 10 - - - -
20/11:30am 31.2 NE 8 13 1008.2 - 0.0 - - 10 - - - -
20/11:00am 30.1 NE 8 13 1008.2 - 0.0 - Partly cloudy 10 - - - -
20/10:30am 30.1 NE 6 9 1008.1 - 0.0 - Partly cloudy 10 - - - -
20/10:00am 28.6 NNE 7 11 1008.3 - 0.0 - Partly cloudy 10 - - - -
20/09:30am 28.1 NE 8 12 1008.5 - 0.0 - Partly cloudy 10 - - - -
20/09:00am 27.2 NE 5 8 1008.6 - 16.6 - Cloudy 10 - - - -
20/08:30am 26.2 ENE 6 9 1008.2 - 16.6 - - 10 - - - -
20/08:00am 25.8 ENE 5 8 1008.2 - 16.6 - - 10 - - - -
20/07:30am 25.2 NE 5 8 1008.3 - 16.6 - - 10 - - - -
20/07:00am 24.8 NE 5 6 1008.1 - 16.6 - Partly cloudy 10 - - - -
20/06:30am 24.7 ENE 5 7 1007.8 - 16.6 - Partly cloudy 10 - - - -
20/06:00am 24.8 ENE 5 7 1007.4 - 16.6 - Cloudy 10 - - - -
20/05:30am 24.7 ENE 5 7 1007.0 - 16.6 - Partly cloudy 10 - - - -
20/05:00am 24.7 ENE 5 8 1006.8 - 16.6 - Partly cloudy 10 - - - -
20/04:30am 24.7 ENE 5 8 1006.6 - 16.6 - - 10 - - - -
20/04:13am 24.6 E 5 7 1006.8 - 16.6 - Partly cloudy 10 - - - -
20/04:00am 24.6 E 4 8 1006.9 - 16.6 - Partly cloudy 10 - - - -
20/03:43am 24.6 ESE 4 7 1006.9 - 16.6 - Partly cloudy 10 - - - -
20/03:30am 24.6 E 5 6 1007.0 - 16.6 - Partly cloudy 10 - - - -

Other Formats:

Comma delimited format used in spreadsheet applications
http://www.bom.gov.au/fwo/IDQ60701/IDQ60701.94268.axf

JavaScript Object Notation format (JSON) in row-major order
http://www.bom.gov.au/fwo/IDQ60701/IDQ60701.94268.json